Time;durP1;ratioP1;P1;durP2;ratioP2;P2;SDS_P1;SDS_P2;PMS_P1;PMS_P2;Temp;Humidity;BMP_temperature;BMP_pressure;BME280_temperature;BME280_humidity;BME280_pressure;Samples;Min_cycle;Max_cycle;Signal;HPM_P1;HPM_P2
2021/12/13 00:02:38;;;;;;;10.57;6.82;;;;;;;0.81;65.13;100379.47;4483380;32;34059;-74
2021/12/13 00:05:08;;;;;;;13.00;6.60;;;;;;;0.52;65.67;100393.37;4483033;32;34345;-75
2021/12/13 00:07:39;;;;;;;12.52;6.75;;;;;;;0.80;64.98;100391.16;4483057;32;34746;-75
2021/12/13 00:10:12;;;;;;;13.40;8.27;;;;;;;1.08;63.98;100384.56;4483039;32;34137;-76
2021/12/13 00:12:45;;;;;;;14.38;7.85;;;;;;;1.16;63.85;100381.88;4482596;32;34555;-74
2021/12/13 00:15:23;;;;;;;12.00;6.40;;;;;;;0.86;64.36;100375.44;4482865;32;33382;-75
2021/12/13 00:17:52;;;;;;;12.82;6.80;;;;;;;0.88;64.39;100371.59;4482558;32;33597;-74
2021/12/13 00:20:28;;;;;;;12.18;6.90;;;;;;;0.65;65.09;100379.50;4483745;32;34267;-75
2021/12/13 00:23:00;;;;;;;12.50;6.40;;;;;;;1.03;64.01;100383.25;4485488;32;33823;-75
2021/12/13 00:25:30;;;;;;;11.07;6.75;;;;;;;0.75;65.06;100381.97;4485138;32;34202;-75
2021/12/13 00:28:13;;;;;;;0.60;0.60;;;;;;;0.68;65.33;100384.50;4485086;32;34637;-74
2021/12/13 00:31:02;;;;;;;1.67;1.02;;;;;;;0.65;64.99;100384.00;4484889;32;35050;-74
2021/12/13 00:33:57;;;;;;;13.07;6.75;;;;;;;0.94;64.44;100383.44;4484918;32;33606;-75
2021/12/13 00:36:30;;;;;;;9.85;5.82;;;;;;;1.03;63.63;100388.59;4486527;32;33272;-74
2021/12/13 00:39:12;;;;;;;9.25;6.22;;;;;;;1.18;63.35;100390.56;4485963;32;33959;-75
2021/12/13 00:41:42;;;;;;;10.75;6.40;;;;;;;1.18;63.89;100390.56;4486286;32;34239;-76
2021/12/13 00:44:15;;;;;;;11.43;7.03;;;;;;;0.75;64.86;100395.34;4485706;32;35001;-75
2021/12/13 00:46:44;;;;;;;11.32;6.68;;;;;;;0.32;66.64;100392.00;4486097;32;34507;-74
2021/12/13 00:49:14;;;;;;;12.23;6.60;;;;;;;1.34;62.93;100395.88;4486126;32;33956;-75
2021/12/13 00:51:48;;;;;;;11.45;7.00;;;;;;;0.58;64.85;100394.50;4485077;32;34219;-75
2021/12/13 00:54:35;;;;;;;9.90;5.95;;;;;;;0.84;64.47;100388.12;4486285;32;33956;-79
2021/12/13 00:57:06;;;;;;;10.27;6.70;;;;;;;1.02;63.77;100386.94;4484910;32;33409;-74
2021/12/13 00:59:55;;;;;;;1.08;0.98;;;;;;;0.93;64.22;100387.97;4486014;32;34827;-74
2021/12/13 01:02:28;;;;;;;13.45;7.00;;;;;;;0.51;65.82;100391.69;4486086;32;34219;-75
2021/12/13 01:04:59;;;;;;;11.25;6.85;;;;;;;0.57;65.56;100401.69;4485972;32;33704;-74
2021/12/13 01:07:32;;;;;;;11.63;6.55;;;;;;;0.48;66.31;100388.53;4485866;32;33385;-75
2021/12/13 01:10:38;;;;;;;11.95;6.87;;;;;;;0.56;65.66;100393.84;4485770;32;33942;-77
2021/12/13 01:13:30;;;;;;;10.20;6.77;;;;;;;0.40;66.40;100395.50;4486321;32;34895;-74
2021/12/13 01:16:09;;;;;;;12.88;6.82;;;;;;;0.77;64.92;100393.31;4485950;32;33906;-76
2021/12/13 01:21:43;;;;;;;11.27;6.50;;;;;;;0.80;64.46;100390.34;4485728;32;34828;-75
2021/12/13 01:24:20;;;;;;;0.70;0.70;;;;;;;0.50;65.49;100406.03;4485795;32;34317;-75
2021/12/13 01:26:49;;;;;;;1.60;0.73;;;;;;;1.02;63.73;100405.63;4485861;32;34778;-71
2021/12/13 01:29:24;;;;;;;11.55;6.62;;;;;;;1.23;62.90;100406.91;4484853;32;33535;-77
2021/12/13 01:31:58;;;;;;;;;;;;;;;1.00;62.96;100401.47;4486060;32;33942;-76
2021/12/13 01:34:27;;;;;;;0.50;0.50;;;;;;;0.83;64.28;100392.66;4483815;32;35244;-75
2021/12/13 01:37:09;;;;;;;0.50;0.50;;;;;;;1.19;62.70;100403.75;4485541;32;33837;-74
2021/12/13 01:39:41;;;;;;;0.40;0.40;;;;;;;0.86;64.02;100400.31;4485826;32;33798;-75
2021/12/13 01:42:16;;;;;;;11.05;7.10;;;;;;;1.32;62.38;100405.91;4485506;32;34032;-76
2021/12/13 01:44:47;;;;;;;10.35;6.37;;;;;;;0.90;63.91;100407.00;4485834;32;34138;-75
2021/12/13 01:47:18;;;;;;;4.37;1.25;;;;;;;0.96;63.31;100408.16;4485640;32;33982;-75
2021/12/13 01:49:52;;;;;;;0.65;0.65;;;;;;;1.44;62.06;100409.03;4485625;32;33485;-75
2021/12/13 01:52:29;;;;;;;11.40;6.72;;;;;;;1.11;62.90;100406.47;4484790;32;34843;-73
2021/12/13 01:54:59;;;;;;;13.77;6.97;;;;;;;0.87;63.50;100411.88;4485576;32;35163;-77
2021/12/13 01:57:53;;;;;;;13.05;6.90;;;;;;;0.73;63.85;100413.37;4484486;32;33848;-74
2021/12/13 02:00:33;;;;;;;12.43;6.87;;;;;;;0.40;64.49;100408.03;4484546;32;33364;-74
2021/12/13 02:03:02;;;;;;;11.45;6.47;;;;;;;0.80;64.34;100419.72;4485350;32;34501;-75
2021/12/13 02:05:32;;;;;;;11.98;6.70;;;;;;;0.81;63.40;100408.84;4485586;32;33959;-75
2021/12/13 02:08:12;;;;;;;11.07;6.43;;;;;;;1.20;62.79;100413.44;4485785;32;34804;-76
2021/12/13 02:10:46;;;;;;;0.70;0.70;;;;;;;1.09;62.65;100404.97;4483790;32;33353;-74
2021/12/13 02:13:17;;;;;;;11.50;6.70;;;;;;;0.78;63.72;100408.38;4485624;32;34494;-75
2021/12/13 02:18:37;;;;;;;10.32;6.62;;;;;;;0.94;62.98;100402.97;4485549;32;33951;-75
2021/12/13 02:21:18;;;;;;;12.57;6.87;;;;;;;0.86;63.67;100429.69;4485046;32;33203;-74
2021/12/13 02:23:48;;;;;;;11.70;6.75;;;;;;;0.89;63.21;100424.03;4485691;32;33927;-75
2021/12/13 02:26:16;;;;;;;13.07;7.00;;;;;;;0.96;63.62;100425.03;4485403;32;35123;-75
2021/12/13 02:28:46;;;;;;;12.90;7.12;;;;;;;0.94;62.91;100421.69;4485411;32;34199;-75
2021/12/13 02:31:19;;;;;;;0.50;0.50;;;;;;;0.39;65.08;100420.56;4485280;32;33714;-75
2021/12/13 02:34:00;;;;;;;11.57;6.55;;;;;;;0.48;64.58;100420.56;4485568;32;34281;-75
2021/12/13 02:36:36;;;;;;;0.70;0.70;;;;;;;0.74;64.04;100426.56;4485389;32;34304;-75
2021/12/13 02:39:12;;;;;;;11.68;6.85;;;;;;;0.82;63.59;100421.22;4484300;32;33859;-74
2021/12/13 02:41:41;;;;;;;12.55;6.97;;;;;;;0.71;63.81;100426.06;4485491;32;34293;-75
2021/12/13 02:44:31;;;;;;;12.18;7.05;;;;;;;0.93;63.23;100425.38;4485008;32;33958;-75
2021/12/13 02:47:01;;;;;;;0.88;0.80;;;;;;;1.07;62.79;100423.84;4485194;32;33807;-75
2021/12/13 02:49:31;;;;;;;9.23;1.45;;;;;;;1.04;62.77;100429.53;4484924;32;34031;-75
2021/12/13 02:52:03;;;;;;;13.98;7.55;;;;;;;0.38;64.79;100424.22;4485279;32;33336;-75
2021/12/13 02:54:38;;;;;;;13.73;7.50;;;;;;;1.02;63.10;100428.88;4484806;32;34623;-74
2021/12/13 02:57:07;;;;;;;;;;;;;;;0.77;63.78;100430.72;4485436;32;33938;-75
2021/12/13 02:59:37;;;;;;;1.00;0.95;;;;;;;0.97;63.14;100424.03;4484247;32;34042;-76
2021/12/13 03:02:15;;;;;;;11.68;6.78;;;;;;;0.79;63.55;100426.87;4483624;32;34275;-75
2021/12/13 03:04:43;;;;;;;11.80;6.87;;;;;;;1.32;62.02;100429.97;4484986;32;33929;-74
2021/12/13 03:07:21;;;;;;;11.73;7.80;;;;;;;1.20;62.22;100429.47;4484805;32;34753;-75
2021/12/13 03:09:53;;;;;;;11.43;6.87;;;;;;;0.97;63.01;100429.38;4471187;32;33412;-75
2021/12/13 03:12:23;;;;;;;11.93;7.43;;;;;;;0.94;62.94;100427.03;4484964;32;33597;-75
2021/12/13 03:14:55;;;;;;;1.15;1.10;;;;;;;0.47;64.27;100421.56;4483726;32;34810;-76
2021/12/13 03:17:28;;;;;;;13.45;7.45;;;;;;;0.90;63.13;100414.19;4483381;32;35108;-75
2021/12/13 03:19:58;;;;;;;12.35;7.50;;;;;;;0.83;63.20;100414.03;4483297;32;34176;-75
2021/12/13 03:22:41;;;;;;;13.82;7.07;;;;;;;0.57;64.06;100416.87;4484735;32;33870;-75
2021/12/13 03:25:17;;;;;;;0.70;0.70;;;;;;;0.70;63.86;100416.37;4484468;32;33772;-75
2021/12/13 03:28:03;;;;;;;12.45;7.57;;;;;;;1.12;62.46;100420.66;4483392;32;34353;-75
2021/12/13 03:30:51;;;;;;;2.28;1.10;;;;;;;0.16;65.77;100411.53;4484644;32;33927;-75
2021/12/13 03:33:29;;;;;;;12.57;7.70;;;;;;;1.06;62.98;100416.84;4484517;32;34186;-76
2021/12/13 03:36:01;;;;;;;12.88;7.40;;;;;;;1.03;62.55;100407.28;4483350;32;34660;-75
2021/12/13 03:38:33;;;;;;;11.73;7.10;;;;;;;0.80;63.53;100417.88;4484458;32;34312;-75
2021/12/13 03:41:05;;;;;;;1.12;0.77;;;;;;;0.33;65.10;100407.03;4484334;32;33961;-75
2021/12/13 03:43:37;;;;;;;13.88;7.57;;;;;;;1.01;63.40;100417.31;4484523;32;33508;-75
2021/12/13 03:46:08;;;;;;;12.50;7.10;;;;;;;1.01;62.67;100424.50;4483993;32;33890;-76
2021/12/13 03:48:36;;;;;;;14.57;7.95;;;;;;;0.38;65.07;100426.06;4483064;32;33945;-74
2021/12/13 03:51:09;;;;;;;13.98;8.13;;;;;;;0.41;65.36;100431.03;4484306;32;34566;-75
2021/12/13 03:53:37;;;;;;;14.87;8.23;;;;;;;-0.44;68.31;100425.84;4483111;32;33295;-75
2021/12/13 03:56:11;;;;;;;12.15;7.60;;;;;;;0.71;65.24;100436.72;4482822;32;33810;-75
2021/12/13 03:58:44;;;;;;;14.37;8.87;;;;;;;0.20;65.98;100434.22;4486539;32;34188;-75
2021/12/13 04:01:16;;;;;;;12.65;7.60;;;;;;;-0.08;67.81;100426.47;4485260;32;33975;-74
2021/12/13 04:03:45;;;;;;;13.38;8.00;;;;;;;-0.33;68.32;100433.56;4469367;32;33533;-76
2021/12/13 04:06:15;;;;;;;12.93;7.50;;;;;;;-0.16;67.40;100439.78;4470429;32;33434;-75
2021/12/13 04:08:51;;;;;;;13.57;8.02;;;;;;;0.85;64.59;100445.94;4469570;32;33961;-74
2021/12/13 04:11:21;;;;;;;13.48;8.63;;;;;;;0.29;66.18;100446.56;4472862;32;34269;-81
2021/12/13 04:14:08;;;;;;;13.52;7.95;;;;;;;-0.31;68.24;100439.56;4484842;32;33653;-89
2021/12/13 04:16:49;;;;;;;14.30;9.00;;;;;;;0.46;66.29;100443.94;4484069;32;34125;-77
2021/12/13 04:19:20;;;;;;;15.75;8.35;;;;;;;0.21;66.32;100451.88;4478982;32;168529;-75
2021/12/13 04:21:52;;;;;;;13.77;8.05;;;;;;;0.83;64.79;100446.09;4484847;32;34000;-75
2021/12/13 04:24:45;;;;;;;14.70;9.18;;;;;;;0.59;65.79;100447.75;4484792;32;33010;-75
2021/12/13 04:27:26;;;;;;;16.08;9.15;;;;;;;0.52;65.71;100443.22;4477473;32;33956;-75
2021/12/13 04:30:00;;;;;;;0.50;0.50;;;;;;;-0.39;69.11;100446.69;4481798;32;34083;-73
2021/12/13 04:32:35;;;;;;;15.88;8.82;;;;;;;0.26;67.39;100438.91;4482878;32;34596;-74
2021/12/13 04:35:04;;;;;;;;;;;;;;;0.35;66.58;100445.09;4478251;31;33534;-73
2021/12/13 04:37:38;;;;;;;0.60;0.60;;;;;;;0.42;66.26;100455.94;4472652;32;34755;-79
2021/12/13 04:40:11;;;;;;;17.52;10.07;;;;;;;0.20;67.47;100455.56;4481931;32;34831;-76
2021/12/13 04:42:40;;;;;;;15.85;9.80;;;;;;;-0.26;68.21;100445.28;4482179;32;34713;-77
2021/12/13 04:45:13;;;;;;;16.98;9.55;;;;;;;-0.39;69.40;100444.88;4483791;32;33511;-79
2021/12/13 04:48:14;;;;;;;17.60;9.85;;;;;;;0.33;66.97;100445.25;4475627;32;34513;-78
2021/12/13 04:51:04;;;;;;;0.73;0.60;;;;;;;-0.18;68.60;100440.94;4471604;32;33932;-78
2021/12/13 04:53:38;;;;;;;17.42;9.95;;;;;;;0.16;67.63;100454.22;4482317;32;33879;-78
2021/12/13 04:56:08;;;;;;;19.52;10.55;;;;;;;0.45;66.78;100444.91;4468981;32;33612;-78
2021/12/13 04:58:37;;;;;;;16.48;9.07;;;;;;;0.81;65.49;100446.25;4469107;32;34905;-80
2021/12/13 05:01:08;;;;;;;19.27;10.27;;;;;;;0.49;66.93;100456.94;4468863;32;33936;-75
2021/12/13 05:03:44;;;;;;;1.50;1.40;;;;;;;-0.04;69.15;100453.69;4468886;32;34334;-75
2021/12/13 05:06:15;;;;;;;17.08;9.57;;;;;;;0.37;67.89;100451.09;4462398;32;34305;-79
2021/12/13 05:08:44;;;;;;;13.20;6.93;;;;;;;0.70;66.80;100459.12;4468715;32;34917;-70
2021/12/13 05:11:13;;;;;;;18.15;10.02;;;;;;;0.33;67.94;100457.75;4483421;32;35048;-73
2021/12/13 05:13:52;;;;;;;18.25;9.48;;;;;;;0.61;67.05;100461.78;4484564;32;33952;-68
2021/12/13 05:16:39;;;;;;;17.15;10.23;;;;;;;1.03;65.85;100467.94;4496479;31;33514;-71
2021/12/13 05:19:08;;;;;;;18.60;9.77;;;;;;;0.84;66.18;100468.28;4483035;32;33480;-78
2021/12/13 05:21:41;;;;;;;19.98;11.52;;;;;;;0.85;66.46;100465.44;4484440;32;35116;-73
2021/12/13 05:24:40;;;;;;;20.40;11.30;;;;;;;0.44;68.05;100476.12;4496069;31;33765;-75
2021/12/13 05:27:13;;;;;;;18.98;11.00;;;;;;;0.05;69.65;100478.53;4483083;32;33843;-72
2021/12/13 05:29:47;;;;;;;22.40;11.75;;;;;;;0.05;69.58;100471.37;4484198;32;33844;-80
2021/12/13 05:32:20;;;;;;;18.30;11.15;;;;;;;0.39;67.78;100484.63;4484730;32;34740;-70
2021/12/13 05:34:56;;;;;;;17.37;10.40;;;;;;;0.71;66.74;100484.81;4482740;32;33820;-72
2021/12/13 05:37:26;;;;;;;21.50;11.35;;;;;;;0.33;68.13;100484.44;4484801;32;33562;-75
2021/12/13 05:40:04;;;;;;;0.40;0.40;;;;;;;0.93;66.53;100492.16;4482962;32;33948;-72
2021/12/13 05:42:36;;;;;;;0.50;0.50;;;;;;;0.78;66.45;100483.16;4484804;32;33909;-70
2021/12/13 05:45:09;;;;;;;18.65;10.30;;;;;;;1.02;66.37;100488.47;4484317;32;33826;-69
2021/12/13 05:47:37;;;;;;;17.73;10.57;;;;;;;0.91;66.76;100491.50;4484462;32;34480;-72
2021/12/13 05:50:07;;;;;;;19.65;11.50;;;;;;;0.81;66.34;100488.97;4484090;32;33989;-70
2021/12/13 05:52:39;;;;;;;19.30;11.12;;;;;;;0.23;68.95;100489.09;4483181;32;33897;-76
2021/12/13 05:55:12;;;;;;;1.58;0.93;;;;;;;0.18;69.21;100495.75;4483875;32;34908;-74
2021/12/13 05:57:49;;;;;;;0.50;0.50;;;;;;;0.88;66.80;100497.16;4484170;32;34516;-72
2021/12/13 06:00:23;;;;;;;2.55;2.35;;;;;;;0.38;68.57;100500.78;4484399;32;34788;-73
2021/12/13 06:03:03;;;;;;;22.33;12.68;;;;;;;0.58;68.45;100499.50;4484210;32;35163;-73
2021/12/13 06:05:33;;;;;;;20.98;11.90;;;;;;;0.30;69.38;100493.63;4483843;32;34713;-72
2021/12/13 06:08:08;;;;;;;19.77;12.32;;;;;;;0.12;70.24;100512.41;4484100;32;33277;-72
2021/12/13 06:10:52;;;;;;;0.70;0.70;;;;;;;0.50;69.50;100501.34;4495962;31;33714;-75
2021/12/13 06:13:46;;;;;;;0.73;0.70;;;;;;;1.01;67.42;100505.50;4484375;32;33971;-71
2021/12/13 06:16:34;;;;;;;23.55;13.48;;;;;;;0.81;67.43;100501.50;4484108;32;34191;-75
2021/12/13 06:19:19;;;;;;;1.12;1.02;;;;;;;0.97;67.60;100508.69;4483581;32;34486;-72
2021/12/13 06:21:52;;;;;;;19.80;11.85;;;;;;;0.89;67.40;100503.38;4495801;31;33761;-71
2021/12/13 06:24:44;;;;;;;0.60;0.60;;;;;;;0.97;67.19;100519.38;4495838;31;34850;-73
2021/12/13 06:27:19;;;;;;;3.30;1.40;;;;;;;0.69;68.64;100519.72;4476369;32;34020;-74
2021/12/13 06:29:49;;;;;;;1.50;0.88;;;;;;;0.82;68.78;100533.41;4484159;32;34456;-71
2021/12/13 06:32:30;;;;;;;2.70;1.77;;;;;;;0.22;70.16;100519.41;4484388;32;34053;-74
2021/12/13 06:34:59;;;;;;;3.30;2.85;;;;;;;0.77;68.85;100527.72;4483595;32;34869;-73
2021/12/13 06:37:34;;;;;;;3.40;1.17;;;;;;;0.23;70.49;100526.44;4482726;32;33852;-73
2021/12/13 06:40:11;;;;;;;0.70;0.70;;;;;;;0.74;69.60;100533.41;4483941;32;34641;-72
2021/12/13 06:42:39;;;;;;;1.37;1.27;;;;;;;1.09;68.55;100535.91;4484333;32;34084;-74
2021/12/13 06:45:22;;;;;;;23.70;12.95;;;;;;;0.40;70.60;100534.31;4483838;32;35709;-73
2021/12/13 06:47:53;;;;;;;1.45;0.98;;;;;;;0.91;69.49;100542.25;4483776;32;34928;-73
2021/12/13 06:50:24;;;;;;;1.27;0.98;;;;;;;0.87;68.90;100535.56;4483422;32;33634;-74
2021/12/13 06:52:52;;;;;;;22.62;13.00;;;;;;;0.88;68.83;100534.56;4483822;32;34754;-74
2021/12/13 06:55:20;;;;;;;19.95;12.40;;;;;;;0.69;69.62;100534.88;4495846;31;33786;-74
2021/12/13 06:57:51;;;;;;;22.33;12.25;;;;;;;1.08;68.80;100543.09;4484043;32;34919;-74
2021/12/13 07:00:22;;;;;;;21.73;13.23;;;;;;;0.82;69.70;100540.56;4483729;32;33689;-75
2021/12/13 07:02:49;;;;;;;23.70;13.02;;;;;;;0.39;71.00;100534.50;4482259;32;33543;-70
2021/12/13 07:06:02;;;;;;;22.55;13.30;;;;;;;1.23;68.29;100541.41;4483372;32;34176;-73
2021/12/13 07:08:39;;;;;;;25.55;15.80;;;;;;;1.67;66.93;100540.16;4434744;32;34447;-73
2021/12/13 07:11:12;;;;;;;34.65;27.05;;;;;;;1.20;68.01;100535.56;4477277;31;34977;-72
2021/12/13 07:13:52;;;;;;;26.10;16.75;;;;;;;1.64;66.78;100533.31;4483671;32;34668;-74
2021/12/13 07:16:24;;;;;;;22.40;13.20;;;;;;;1.49;66.99;100539.53;4482393;32;34746;-75
2021/12/13 07:19:00;;;;;;;21.45;13.43;;;;;;;0.82;69.37;100545.91;4494848;31;33759;-70
2021/12/13 07:21:31;;;;;;;25.40;14.32;;;;;;;1.13;68.44;100542.59;4483653;32;33283;-74
2021/12/13 07:24:09;;;;;;;24.75;14.13;;;;;;;0.97;69.40;100554.09;4482121;32;33626;-72
2021/12/13 07:27:17;;;;;;;28.40;16.45;;;;;;;1.18;68.86;100545.59;4469182;32;32556;-70
2021/12/13 07:29:54;;;;;;;28.60;15.45;;;;;;;1.49;67.62;100550.22;4472322;32;34025;-71
2021/12/13 07:32:26;;;;;;;26.15;14.93;;;;;;;1.94;66.55;100552.28;4484976;32;33333;-71
2021/12/13 07:35:04;;;;;;;36.95;22.20;;;;;;;1.63;67.13;100554.88;4484807;32;34797;-72
2021/12/13 07:37:42;;;;;;;23.58;15.00;;;;;;;1.30;68.77;100552.28;4485459;32;34943;-73
2021/12/13 07:40:18;;;;;;;24.05;14.57;;;;;;;1.55;68.66;100550.38;4485239;32;33904;-70
2021/12/13 07:42:51;;;;;;;24.58;13.88;;;;;;;1.62;68.38;100554.06;4484439;32;34597;-70
2021/12/13 07:45:25;;;;;;;25.70;14.00;;;;;;;1.60;68.91;100557.91;4485357;32;35150;-73
2021/12/13 07:47:53;;;;;;;26.20;14.68;;;;;;;1.84;68.93;100555.16;4484899;32;33938;-73
2021/12/13 07:50:22;;;;;;;25.75;15.32;;;;;;;2.26;67.22;100559.34;4485108;32;33605;-76
2021/12/13 07:52:59;;;;;;;21.15;13.25;;;;;;;1.88;68.10;100569.03;4485306;32;33553;-72
2021/12/13 07:55:29;;;;;;;1.95;1.77;;;;;;;2.43;66.84;100569.97;4496955;31;33875;-76
2021/12/13 07:58:01;;;;;;;22.35;12.40;;;;;;;2.95;65.54;100571.16;4485310;32;33905;-70
2021/12/13 08:00:38;;;;;;;21.42;12.00;;;;;;;2.74;66.02;100563.78;4485409;32;34761;-69
2021/12/13 08:03:10;;;;;;;21.87;12.48;;;;;;;2.63;66.20;100573.03;4484577;32;33137;-75
2021/12/13 08:05:49;;;;;;;21.95;12.10;;;;;;;3.08;65.03;100566.03;4485098;32;34054;-74
2021/12/13 08:08:24;;;;;;;20.42;11.73;;;;;;;3.55;63.68;100580.22;4484966;32;35050;-76
2021/12/13 08:10:57;;;;;;;18.08;10.90;;;;;;;4.08;61.68;100578.31;4485259;32;34553;-75
2021/12/13 08:13:28;;;;;;;19.15;12.07;;;;;;;2.93;64.81;100573.19;4485206;32;34649;-74
2021/12/13 08:16:06;;;;;;;21.25;11.75;;;;;;;3.55;64.06;100578.38;4485014;32;34925;-74
2021/12/13 08:18:38;;;;;;;19.87;11.90;;;;;;;3.22;64.37;100578.66;4484605;32;33681;-75
2021/12/13 08:21:20;;;;;;;21.67;11.82;;;;;;;3.57;63.67;100583.56;4484854;32;33681;-74
2021/12/13 08:24:00;;;;;;;21.62;11.68;;;;;;;4.10;62.12;100589.69;4483750;32;33417;-74
2021/12/13 08:26:30;;;;;;;20.23;11.93;;;;;;;4.92;59.18;100602.06;4485034;32;33902;-75
2021/12/13 08:28:59;;;;;;;19.27;11.05;;;;;;;5.23;58.41;100584.78;4484841;32;34183;-74
2021/12/13 08:31:33;;;;;;;18.67;11.55;;;;;;;5.61;57.32;100595.22;4484764;32;34065;-74
2021/12/13 08:34:06;;;;;;;18.30;11.10;;;;;;;6.02;56.32;100605.28;4482719;32;34673;-63
2021/12/13 08:36:36;;;;;;;21.65;12.45;;;;;;;6.61;54.28;100596.66;4485142;32;33945;-74
2021/12/13 08:39:10;;;;;;;20.75;11.60;;;;;;;7.23;52.47;100591.19;4484919;32;34279;-76
2021/12/13 08:41:50;;;;;;;21.33;12.05;;;;;;;7.66;50.63;100599.72;4484857;32;33729;-74
2021/12/13 08:44:28;;;;;;;17.10;10.18;;;;;;;7.88;50.38;100597.63;4484296;32;33406;-79
2021/12/13 08:47:03;;;;;;;17.02;9.95;;;;;;;7.14;51.97;100602.19;4484462;32;33670;-75
2021/12/13 08:49:33;;;;;;;18.12;9.93;;;;;;;7.84;49.85;100607.22;4484871;32;34412;-74
2021/12/13 08:52:19;;;;;;;18.95;10.02;;;;;;;7.98;50.36;100606.13;4484904;32;33984;-74
2021/12/13 08:54:51;;;;;;;13.85;9.63;;;;;;;7.87;49.04;100606.78;4484594;32;34271;-73
2021/12/13 08:57:41;;;;;;;17.75;9.60;;;;;;;7.54;50.31;100606.81;4484724;32;34773;-73
2021/12/13 09:00:11;;;;;;;14.50;8.10;;;;;;;8.78;47.97;100597.78;4484721;32;34766;-71
2021/12/13 09:03:08;;;;;;;17.70;8.77;;;;;;;8.47;48.18;100595.84;4484344;32;34154;-72
2021/12/13 09:05:39;;;;;;;15.45;9.02;;;;;;;7.92;49.22;100603.44;4428610;31;34305;-72
2021/12/13 09:08:13;;;;;;;12.85;8.52;;;;;;;8.82;47.49;100600.88;4484709;32;34618;-72
2021/12/13 09:10:46;;;;;;;13.77;8.25;;;;;;;7.79;48.25;100602.41;4484724;32;34093;-71
2021/12/13 09:13:16;;;;;;;14.07;8.45;;;;;;;8.77;47.84;100593.41;4484713;32;33647;-71
2021/12/13 09:15:47;;;;;;;15.32;8.52;;;;;;;8.16;48.95;100597.38;4496127;31;33577;-74
2021/12/13 09:18:20;;;;;;;13.57;8.45;;;;;;;7.59;48.62;100607.81;4484268;32;34830;-72
2021/12/13 09:20:53;;;;;;;13.55;7.95;;;;;;;7.83;49.62;100597.44;4484321;32;35067;-73
2021/12/13 09:23:28;;;;;;;12.93;7.68;;;;;;;7.69;48.99;100599.31;4483190;32;34776;-78
2021/12/13 09:26:21;;;;;;;13.30;7.97;;;;;;;7.54;49.76;100602.22;4483859;32;34553;-70
2021/12/13 09:29:01;;;;;;;13.55;8.30;;;;;;;8.01;47.96;100610.28;4482505;32;33831;-70
2021/12/13 09:31:36;;;;;;;13.45;8.27;;;;;;;6.99;52.30;100599.66;4483527;32;34162;-71
2021/12/13 09:34:13;;;;;;;14.67;7.77;;;;;;;7.31;50.92;100594.53;4484549;32;33740;-73
2021/12/13 09:36:44;;;;;;;14.70;7.87;;;;;;;6.23;53.08;100597.13;4484414;32;33220;-71
2021/12/13 09:39:27;;;;;;;12.35;7.32;;;;;;;6.72;52.70;100593.37;4484553;32;34559;-71
2021/12/13 09:42:05;;;;;;;14.35;8.15;;;;;;;7.43;50.67;100588.50;4483073;32;34320;-72
2021/12/13 09:45:02;;;;;;;14.32;8.20;;;;;;;6.59;52.07;100587.94;4484087;32;33671;-75
2021/12/13 09:47:39;;;;;;;15.98;9.23;;;;;;;6.29;53.09;100590.09;4496181;31;33046;-72
2021/12/13 09:50:11;;;;;;;15.93;9.23;;;;;;;6.67;52.48;100579.66;4485710;32;34834;-73
2021/12/13 09:52:50;;;;;;;13.43;8.77;;;;;;;7.51;50.68;100586.44;4485322;32;34554;-73
2021/12/13 09:55:18;;;;;;;17.15;8.82;;;;;;;7.20;50.76;100584.34;4484409;32;33688;-74
2021/12/13 09:57:57;;;;;;;36.67;23.55;;;;;;;6.35;53.54;100576.66;4483824;32;33588;-81
2021/12/13 10:00:29;;;;;;;17.55;9.20;;;;;;;6.20;54.30;100583.19;4485425;32;34600;-69
2021/12/13 10:03:10;;;;;;;13.23;8.50;;;;;;;5.94;54.41;100576.63;4484769;32;35200;-71
2021/12/13 10:05:47;;;;;;;17.77;9.63;;;;;;;6.75;52.72;100575.97;4485582;32;33950;-72
2021/12/13 10:08:19;;;;;;;14.35;8.07;;;;;;;6.49;52.51;100568.63;4485512;32;33531;-74
2021/12/13 10:10:51;;;;;;;16.27;9.43;;;;;;;6.78;52.15;100575.53;4483406;32;34115;-73
2021/12/13 10:13:25;;;;;;;15.55;9.18;;;;;;;6.75;53.05;100570.56;4480115;32;34056;-71
2021/12/13 10:15:59;;;;;;;18.83;10.93;;;;;;;6.48;54.00;100567.78;4469446;32;34131;-73
2021/12/13 10:18:31;;;;;;;16.58;10.02;;;;;;;6.33;54.42;100567.94;4455365;32;34652;-72
2021/12/13 10:21:24;;;;;;;16.85;9.57;;;;;;;7.21;52.65;100566.28;4469335;32;34004;-76
2021/12/13 10:23:56;;;;;;;15.48;9.32;;;;;;;6.75;53.49;100563.31;4469524;32;34220;-78
2021/12/13 10:26:30;;;;;;;15.65;8.88;;;;;;;7.33;51.62;100561.94;4468363;32;34070;-70
2021/12/13 10:29:00;;;;;;;17.73;10.75;;;;;;;6.47;53.67;100555.34;4469550;32;34299;-81
2021/12/13 10:31:59;;;;;;;16.37;10.15;;;;;;;6.87;53.28;100568.94;4467962;32;34661;-70
2021/12/13 10:34:31;;;;;;;14.90;9.48;;;;;;;7.13;52.32;100562.75;4468359;32;35222;-78
2021/12/13 10:37:13;;;;;;;16.48;9.55;;;;;;;7.52;50.58;100566.50;4469567;32;34023;-76
2021/12/13 10:39:49;;;;;;;16.87;9.93;;;;;;;6.58;52.45;100564.72;4469574;32;33506;-80
2021/12/13 10:42:26;;;;;;;;;;;;;;;5.52;56.78;100564.94;4469767;32;34658;-74
2021/12/13 10:44:54;;;;;;;15.82;10.00;;;;;;;6.42;54.67;100557.00;4484970;32;35941;-76
2021/12/13 10:47:35;;;;;;;15.77;9.57;;;;;;;6.18;54.90;100559.16;4484604;32;33987;-73
2021/12/13 10:50:10;;;;;;;17.87;8.88;;;;;;;6.46;54.61;100556.38;4485175;32;33430;-73
2021/12/13 10:52:40;;;;;;;14.65;8.73;;;;;;;6.08;54.51;100558.69;4484812;32;34698;-87
2021/12/13 10:55:13;;;;;;;13.38;8.35;;;;;;;6.21;53.83;100558.75;4485105;32;34184;-77
2021/12/13 10:57:44;;;;;;;15.63;7.37;;;;;;;5.69;53.77;100549.31;4483647;32;34584;-74
2021/12/13 11:00:28;;;;;;;14.90;8.70;;;;;;;4.94;56.58;100554.28;4483809;32;33448;-72
2021/12/13 11:03:03;;;;;;;13.60;8.18;;;;;;;4.63;57.71;100550.06;4479072;32;33586;-72
2021/12/13 11:05:31;;;;;;;15.07;8.38;;;;;;;5.55;56.27;100554.63;4468774;32;34268;-72
2021/12/13 11:07:59;;;;;;;16.25;8.88;;;;;;;5.66;54.97;100549.69;4481370;32;34920;-70
2021/12/13 11:10:35;;;;;;;17.80;11.45;;;;;;;5.41;54.30;100538.56;4483578;32;35194;-72
2021/12/13 11:13:22;;;;;;;16.58;8.55;;;;;;;5.29;55.34;100541.78;4484798;32;34767;-70
2021/12/13 11:15:54;;;;;;;16.77;9.77;;;;;;;5.02;56.50;100554.16;4484454;32;34788;-70
2021/12/13 11:18:28;;;;;;;18.00;11.38;;;;;;;5.71;54.65;100549.97;4484645;32;34612;-70
2021/12/13 11:20:59;;;;;;;19.08;9.85;;;;;;;5.62;55.70;100551.16;4484375;32;34410;-70
2021/12/13 11:23:27;;;;;;;15.50;9.75;;;;;;;6.10;55.41;100548.56;4478543;32;33964;-71
2021/12/13 11:25:58;;;;;;;15.68;10.52;;;;;;;6.36;54.35;100545.13;4469184;32;35070;-82
2021/12/13 11:28:29;;;;;;;18.08;9.35;;;;;;;6.04;54.67;100552.88;4467708;32;34273;-71
2021/12/13 11:30:56;;;;;;;16.62;10.52;;;;;;;6.83;54.08;100545.28;4468747;32;34245;-78
2021/12/13 11:34:09;;;;;;;15.98;10.13;;;;;;;5.70;56.19;100554.53;4468690;32;34831;-79
2021/12/13 11:37:00;;;;;;;17.90;10.05;;;;;;;6.66;54.67;100556.44;4450728;32;34952;-71
2021/12/13 11:39:56;;;;;;;16.73;9.75;;;;;;;5.84;55.69;100551.91;4469127;32;33994;-75
2021/12/13 11:42:42;;;;;;;;;;;;;;;7.01;53.81;100544.69;4469264;32;33503;-73
2021/12/13 11:45:12;;;;;;;18.70;10.23;;;;;;;6.46;54.54;100545.59;4468652;32;34214;-71
2021/12/13 11:48:42;;;;;;;18.17;10.60;;;;;;;6.67;54.13;100544.59;4468511;32;35285;-78
2021/12/13 11:51:44;;;;;;;15.65;9.48;;;;;;;7.16;52.70;100537.22;4390019;32;33695;-75
2021/12/13 11:54:39;;;;;;;17.75;10.80;;;;;;;6.42;54.26;100548.91;4389736;32;33403;-86
2021/12/13 11:57:28;;;;;;;21.55;11.75;;;;;;;7.31;52.29;100547.81;4468623;32;33974;-80
2021/12/13 12:00:09;;;;;;;23.67;12.05;;;;;;;6.90;52.71;100538.03;4468410;32;34905;-86
2021/12/13 12:03:17;;;;;;;18.30;10.63;;;;;;;6.96;53.07;100531.81;4468306;32;34858;-81
2021/12/13 12:06:04;;;;;;;17.55;10.18;;;;;;;7.15;51.98;100533.69;4430770;32;35214;-74
2021/12/13 12:08:47;;;;;;;20.00;10.95;;;;;;;6.97;52.93;100528.87;4468382;32;33808;-85
2021/12/13 12:11:31;;;;;;;18.17;10.32;;;;;;;7.05;53.65;100532.44;4467300;32;34635;-83
2021/12/13 12:14:06;;;;;;;18.73;10.85;;;;;;;6.88;52.79;100529.31;4467087;32;33515;-85